Time;durP1;ratioP1;P1;durP2;ratioP2;P2;SDS_P1;SDS_P2;PMS_P1;PMS_P2;Temp;Humidity;BMP_temperature;BMP_pressure;BME280_temperature;BME280_humidity;BME280_pressure;Samples;Min_cycle;Max_cycle;Signal;HPM_P1;HPM_P2
2022/08/12 00:45:09;;;;;;;11.20;7.60;;;19.80;99.90;;;;;;5018112;28;38359;-62
2022/08/12 00:47:38;;;;;;;12.70;8.43;;;19.80;99.90;;;;;;5014435;28;37380;-58
2022/08/12 00:50:07;;;;;;;9.65;7.90;;;19.70;99.90;;;;;;5023852;28;35421;-58
2022/08/12 00:52:35;;;;;;;13.02;7.65;;;19.70;99.90;;;;;;5021855;28;36413;-62
2022/08/12 00:55:06;;;;;;;10.13;7.65;;;19.70;99.90;;;;;;5023593;28;37466;-63
2022/08/12 00:57:35;;;;;;;8.63;6.82;;;19.60;99.90;;;;;;5022618;28;37463;-62
2022/08/12 01:00:08;;;;;;;10.82;6.85;;;19.60;99.90;;;;;;5020240;28;35276;-58
2022/08/12 01:02:39;;;;;;;10.68;7.30;;;19.60;99.90;;;;;;5024226;28;38384;-58
2022/08/12 01:13:29;;;;;;;10.00;6.63;;;19.50;99.90;;;;;;5021848;28;38201;-58
2022/08/12 01:15:59;;;;;;;9.82;6.35;;;19.50;99.90;;;;;;5022846;28;38766;-58
2022/08/12 01:18:29;;;;;;;8.30;6.50;;;19.50;99.90;;;;;;5023455;28;36452;-58
2022/08/12 01:21:06;;;;;;;9.48;6.68;;;19.50;99.90;;;;;;5025032;28;36558;-58
2022/08/12 01:24:08;;;;;;;9.35;6.43;;;19.60;99.90;;;;;;5024257;28;39037;-58
2022/08/12 01:26:40;;;;;;;10.07;6.55;;;19.50;99.90;;;;;;5023908;28;38040;-58
2022/08/12 01:29:10;;;;;;;9.73;5.82;;;19.50;99.90;;;;;;5019826;28;37740;-58
2022/08/12 01:31:38;;;;;;;10.02;5.60;;;19.60;99.90;;;;;;5024271;28;35345;-62
2022/08/12 01:34:07;;;;;;;9.20;6.28;;;19.60;99.90;;;;;;5022225;28;37288;-62
2022/08/12 01:36:40;;;;;;;9.23;5.90;;;19.60;99.90;;;;;;5023262;28;39213;-58
2022/08/12 01:39:08;;;;;;;7.68;5.07;;;19.60;99.90;;;;;;5022985;28;36865;-58
2022/08/12 01:41:43;;;;;;;7.75;5.55;;;19.60;99.90;;;;;;5022414;28;36229;-58
2022/08/12 01:44:13;;;;;;;9.38;6.07;;;19.60;99.90;;;;;;5020654;28;40082;-58
2022/08/12 01:46:52;;;;;;;7.88;5.68;;;19.60;99.90;;;;;;5021928;28;36534;-62
2022/08/12 01:49:47;;;;;;;13.80;5.38;;;19.60;99.90;;;;;;5020199;28;37354;-62
2022/08/12 01:52:28;;;;;;;9.98;5.13;;;19.60;99.90;;;;;;5023076;28;36638;-58
2022/08/12 01:54:57;;;;;;;8.27;4.93;;;19.60;99.90;;;;;;5025004;28;37321;-58
2022/08/12 01:57:40;;;;;;;7.32;5.05;;;19.60;99.90;;;;;;5019765;28;37928;-58
2022/08/12 02:00:12;;;;;;;7.68;4.72;;;19.60;99.90;;;;;;5022948;28;37800;-58
2022/08/12 02:02:45;;;;;;;8.48;5.18;;;19.60;99.90;;;;;;5022436;28;38405;-58
2022/08/12 02:11:16;;;;;;;10.00;4.80;;;19.50;99.90;;;;;;5019667;28;38455;-58
2022/08/12 02:13:51;;;;;;;;;;;19.50;99.90;;;;;;5022711;28;36878;-58
2022/08/12 02:16:29;;;;;;;8.23;5.05;;;19.40;99.90;;;;;;5024940;28;37193;-58
2022/08/12 02:19:05;;;;;;;11.98;5.20;;;19.40;99.90;;;;;;5026795;28;36540;-58
2022/08/12 02:21:41;;;;;;;9.55;5.13;;;19.40;99.90;;;;;;5043101;28;37669;-58
2022/08/12 02:24:13;;;;;;;10.35;5.45;;;19.50;99.90;;;;;;5040516;28;35686;-62
2022/08/12 02:26:42;;;;;;;9.70;4.53;;;19.50;99.90;;;;;;5041225;28;36237;-62
2022/08/12 02:29:13;;;;;;;9.95;5.20;;;19.50;99.90;;;;;;5036606;28;38852;-62
2022/08/12 02:31:44;;;;;;;9.82;4.95;;;19.40;99.90;;;;;;5041556;28;37128;-62
2022/08/12 02:34:14;;;;;;;8.55;5.03;;;19.40;99.90;;;;;;5041817;28;38171;-62
2022/08/12 02:36:44;;;;;;;9.75;5.35;;;19.30;99.90;;;;;;5041027;28;37487;-57
2022/08/12 02:39:15;;;;;;;10.25;5.32;;;19.30;99.90;;;;;;5037731;28;37711;-62
2022/08/12 02:41:45;;;;;;;11.45;4.90;;;19.30;99.90;;;;;;5039992;28;36818;-62
2022/08/12 02:44:17;;;;;;;10.05;5.68;;;19.20;99.90;;;;;;5037747;28;36709;-62
2022/08/12 02:46:49;;;;;;;10.15;5.28;;;19.20;99.90;;;;;;5040408;28;37457;-62
2022/08/12 02:49:22;;;;;;;11.27;5.93;;;19.20;99.90;;;;;;5038158;28;37530;-58
2022/08/12 02:51:50;;;;;;;8.50;5.60;;;19.10;99.90;;;;;;5040693;28;37595;-62
2022/08/12 02:54:18;;;;;;;8.40;5.43;;;19.10;99.90;;;;;;5041455;28;36514;-58
2022/08/12 02:56:45;;;;;;;10.60;5.32;;;19.00;99.90;;;;;;5040739;28;40014;-58
2022/08/12 02:59:16;;;;;;;9.07;6.00;;;19.00;99.90;;;;;;5037918;28;37931;-58
2022/08/12 03:01:47;;;;;;;8.25;5.20;;;19.00;99.90;;;;;;5037808;28;36318;-58
2022/08/12 03:04:20;;;;;;;11.45;5.20;;;18.90;99.90;;;;;;5041336;28;36421;-58
2022/08/12 03:06:55;;;;;;;7.70;4.75;;;18.80;99.90;;;;;;5041846;28;37078;-58
2022/08/12 03:09:25;;;;;;;9.60;5.90;;;18.90;99.90;;;;;;5041434;28;38233;-58
2022/08/12 03:12:02;;;;;;;8.40;5.75;;;18.80;99.90;;;;;;5042327;28;36071;-62
2022/08/12 03:14:34;;;;;;;7.75;5.53;;;18.90;99.90;;;;;;5040630;28;35587;-62
2022/08/12 03:17:10;;;;;;;9.80;6.07;;;18.80;99.90;;;;;;5041961;28;36440;-62
2022/08/12 03:19:38;;;;;;;8.82;5.85;;;18.80;99.90;;;;;;5031332;28;37709;-58
2022/08/12 03:22:11;;;;;;;9.98;5.20;;;18.80;99.90;;;;;;5028416;28;38531;-58
2022/08/12 03:24:42;;;;;;;7.80;5.50;;;18.80;99.90;;;;;;5028517;28;38734;-58
2022/08/12 03:27:12;;;;;;;10.02;5.25;;;18.80;99.90;;;;;;5026465;28;37486;-58
2022/08/12 03:29:45;;;;;;;8.85;5.60;;;18.80;99.90;;;;;;5028676;28;36582;-62
2022/08/12 03:32:13;;;;;;;9.85;5.38;;;18.80;99.90;;;;;;5028368;28;37229;-62
2022/08/12 03:34:41;;;;;;;7.57;5.55;;;18.80;99.90;;;;;;5029155;28;36573;-58
2022/08/12 03:37:10;;;;;;;8.43;5.45;;;18.70;99.90;;;;;;5029807;28;37515;-62
2022/08/12 03:39:43;;;;;;;11.30;6.20;;;18.70;99.90;;;;;;5028611;28;38320;-62
2022/08/12 03:42:24;;;;;;;9.57;5.40;;;18.70;99.90;;;;;;5027264;28;37372;-62
2022/08/12 04:01:58;;;;;;;9.35;6.25;;;18.50;99.90;;;;;;5027883;28;39233;-62
2022/08/12 04:04:28;;;;;;;9.85;6.60;;;18.50;99.90;;;;;;5027709;28;37827;-58
2022/08/12 04:06:57;;;;;;;8.10;5.85;;;18.60;99.90;;;;;;5030236;28;35323;-62
2022/08/12 04:09:25;;;;;;;7.97;5.32;;;18.60;99.90;;;;;;5026995;28;38857;-62
2022/08/12 04:14:39;;;;;;;6.45;4.88;;;18.50;99.90;;;;;;5027347;28;39697;-58
2022/08/12 04:17:08;;;;;;;8.18;5.80;;;18.50;99.90;;;;;;5028304;28;36438;-58
2022/08/12 04:19:37;;;;;;;10.00;6.50;;;18.50;99.90;;;;;;5034000;28;38334;-58
2022/08/12 04:22:04;;;;;;;11.77;5.97;;;18.50;99.90;;;;;;5038901;28;36436;-58
2022/08/12 04:24:33;;;;;;;9.48;5.50;;;18.50;99.90;;;;;;5039654;28;38246;-58
2022/08/12 04:27:01;;;;;;;10.38;5.75;;;18.50;99.90;;;;;;5041565;28;36463;-58
2022/08/12 04:29:28;;;;;;;9.18;5.72;;;18.50;99.90;;;;;;5037598;28;39900;-58
2022/08/12 04:31:55;;;;;;;12.52;6.45;;;18.50;99.90;;;;;;5043192;28;36501;-58
2022/08/12 04:34:24;;;;;;;10.20;5.82;;;18.50;99.90;;;;;;5040274;28;38339;-62
2022/08/12 04:36:52;;;;;;;11.80;5.55;;;18.40;99.90;;;;;;5045874;28;37290;-62
2022/08/12 04:39:21;;;;;;;8.20;5.38;;;18.40;99.90;;;;;;5042633;28;37044;-59
2022/08/12 04:41:49;;;;;;;7.88;5.47;;;18.40;99.90;;;;;;5043440;28;37195;-62
2022/08/12 04:44:16;;;;;;;7.82;5.28;;;18.40;99.90;;;;;;5045322;28;38428;-58
2022/08/12 04:46:44;;;;;;;7.88;5.60;;;18.50;99.90;;;;;;5043093;28;37056;-58
2022/08/12 04:49:11;;;;;;;8.80;5.05;;;18.60;99.90;;;;;;5045735;28;37350;-58
2022/08/12 04:51:40;;;;;;;11.00;5.88;;;18.70;99.90;;;;;;5043027;28;37966;-58
2022/08/12 04:54:08;;;;;;;9.25;5.45;;;18.70;99.90;;;;;;5044869;28;37759;-58
2022/08/12 04:56:36;;;;;;;9.70;6.35;;;18.80;99.90;;;;;;5043163;28;36437;-58
2022/08/12 04:59:04;;;;;;;8.75;5.55;;;18.90;99.90;;;;;;5045041;28;37379;-62
2022/08/12 05:01:31;;;;;;;8.65;5.25;;;19.00;99.90;;;;;;5043229;28;39077;-58
2022/08/12 05:04:01;;;;;;;8.60;5.15;;;19.00;99.90;;;;;;5041229;28;40835;-58
2022/08/12 05:06:28;;;;;;;8.35;5.53;;;19.00;99.90;;;;;;5044100;28;36515;-58
2022/08/12 05:08:59;;;;;;;10.00;5.60;;;19.10;99.90;;;;;;5043695;28;40336;-58
2022/08/12 05:11:27;;;;;;;8.60;5.50;;;19.20;99.90;;;;;;5043792;28;37898;-58
2022/08/12 05:13:58;;;;;;;8.63;5.78;;;19.30;99.90;;;;;;5041995;28;39526;-58
2022/08/12 05:16:26;;;;;;;8.20;5.40;;;19.50;99.90;;;;;;5042577;28;37326;-58
2022/08/12 05:18:53;;;;;;;10.05;5.57;;;19.70;99.90;;;;;;5044340;28;39355;-58
2022/08/12 05:21:21;;;;;;;10.23;5.82;;;19.80;99.90;;;;;;5044303;28;38870;-62
2022/08/12 05:23:48;;;;;;;8.18;5.40;;;19.80;99.90;;;;;;5044409;28;37851;-62
2022/08/12 05:26:19;;;;;;;9.00;5.40;;;19.90;99.90;;;;;;5042195;28;20105;-62
2022/08/12 05:28:46;;;;;;;8.52;5.40;;;19.90;99.90;;;;;;5041272;28;37133;-58
2022/08/12 05:31:13;;;;;;;9.05;4.90;;;20.00;99.90;;;;;;5043851;28;38752;-63
2022/08/12 05:33:44;;;;;;;8.40;5.30;;;20.10;99.90;;;;;;5032512;28;37368;-62
2022/08/12 05:36:14;;;;;;;7.85;5.15;;;20.20;99.90;;;;;;5038199;28;37630;-62
2022/08/12 05:38:57;;;;;;;7.53;5.80;;;20.30;99.90;;;;;;5042191;28;36275;-62
2022/08/12 05:41:28;;;;;;;11.40;5.68;;;20.40;99.90;;;;;;5042451;28;36626;-62
2022/08/12 05:43:57;;;;;;;8.07;5.10;;;20.50;99.90;;;;;;5043144;28;36855;-58
2022/08/12 05:46:26;;;;;;;12.45;5.35;;;20.60;99.90;;;;;;5040022;28;37245;-61
2022/08/12 05:48:55;;;;;;;11.05;5.30;;;20.70;99.90;;;;;;5044889;28;36286;-58
2022/08/12 05:51:24;;;;;;;10.90;4.95;;;20.80;99.90;;;;;;5043470;28;37905;-62
2022/08/12 05:53:52;;;;;;;9.27;5.05;;;20.90;99.90;;;;;;5040621;28;38843;-62
2022/08/12 05:56:21;;;;;;;9.60;5.00;;;21.00;99.90;;;;;;5044109;28;36474;-63
2022/08/12 05:58:51;;;;;;;13.07;5.07;;;21.20;99.90;;;;;;5034184;28;38749;-63
2022/08/12 06:01:18;;;;;;;10.40;4.50;;;21.30;99.90;;;;;;5034093;28;37288;-58
2022/08/12 06:03:46;;;;;;;9.40;3.67;;;21.40;99.90;;;;;;5034162;28;37300;-58
2022/08/12 06:06:16;;;;;;;8.05;3.35;;;21.50;99.90;;;;;;5031475;28;36410;-58
2022/08/12 06:08:47;;;;;;;8.20;3.30;;;21.60;99.90;;;;;;5020850;28;37697;-58
2022/08/12 06:11:15;;;;;;;10.68;4.03;;;21.70;99.90;;;;;;5029949;28;38727;-58
2022/08/12 06:13:44;;;;;;;5.10;3.15;;;21.80;99.90;;;;;;5032732;28;37590;-58
2022/08/12 06:16:15;;;;;;;9.57;3.90;;;21.90;99.60;;;;;;5033152;28;37423;-58
2022/08/12 06:18:43;;;;;;;9.73;3.67;;;22.00;99.20;;;;;;5026020;28;38666;-58
2022/08/12 06:21:13;;;;;;;7.35;3.15;;;22.10;99.00;;;;;;5022721;28;38012;-58
2022/08/12 06:23:41;;;;;;;5.82;2.92;;;22.10;98.80;;;;;;5025988;28;36605;-58
2022/08/12 06:26:10;;;;;;;7.38;3.22;;;22.20;98.60;;;;;;5025326;28;37182;-58
2022/08/12 06:28:37;;;;;;;6.05;3.03;;;22.30;98.10;;;;;;5027050;28;39752;-58
2022/08/12 06:31:06;;;;;;;7.35;3.08;;;22.30;98.00;;;;;;5025804;28;38467;-58
2022/08/12 06:33:35;;;;;;;10.60;3.42;;;22.40;97.80;;;;;;5026634;28;38236;-58
2022/08/12 06:36:03;;;;;;;8.00;2.88;;;22.40;97.30;;;;;;5028144;28;37379;-63
2022/08/12 06:38:31;;;;;;;5.00;3.00;;;22.50;97.00;;;;;;5022696;28;37585;-58
2022/08/12 06:43:50;;;;;;;7.22;2.70;;;22.50;96.40;;;;;;5029402;28;37237;-58
2022/08/12 06:46:18;;;;;;;7.00;2.60;;;22.60;96.40;;;;;;5027986;28;36557;-58
2022/08/12 06:48:46;;;;;;;6.57;2.80;;;22.60;96.00;;;;;;5028080;28;37518;-58
2022/08/12 06:51:14;;;;;;;6.55;2.80;;;22.70;96.00;;;;;;5024614;28;37573;-58
2022/08/12 06:53:42;;;;;;;9.50;2.90;;;22.70;95.90;;;;;;5011695;28;36970;-58
2022/08/12 06:56:09;;;;;;;8.70;2.88;;;22.70;95.60;;;;;;5028018;28;34599;-58
2022/08/12 06:58:38;;;;;;;7.07;2.83;;;22.70;95.60;;;;;;5020899;28;38601;-58
2022/08/12 07:01:07;;;;;;;7.55;2.90;;;22.80;95.40;;;;;;5022835;28;38484;-58
2022/08/12 07:03:35;;;;;;;6.43;2.40;;;22.80;95.50;;;;;;5023963;28;37032;-58
2022/08/12 07:06:09;;;;;;;6.60;2.45;;;22.80;95.40;;;;;;5021031;28;38083;-59
2022/08/12 07:08:37;;;;;;;6.10;2.45;;;22.80;95.50;;;;;;5020703;28;38161;-58
2022/08/12 07:11:06;;;;;;;4.45;2.38;;;22.90;95.20;;;;;;5019281;28;38739;-58
2022/08/12 07:13:37;;;;;;;5.35;2.20;;;22.90;94.90;;;;;;5015549;28;38377;-63
2022/08/12 07:16:05;;;;;;;6.80;2.13;;;23.00;95.10;;;;;;5016116;28;36443;-63
2022/08/12 07:18:33;;;;;;;5.22;2.10;;;23.00;94.70;;;;;;5020788;28;37830;-62
2022/08/12 07:21:04;;;;;;;6.15;2.20;;;23.00;94.50;;;;;;5017636;28;37786;-63
2022/08/12 07:23:34;;;;;;;5.03;2.30;;;23.00;94.60;;;;;;5017016;28;37394;-58
2022/08/12 07:26:04;;;;;;;7.13;2.40;;;23.10;94.70;;;;;;5023285;28;36512;-58
2022/08/12 07:28:34;;;;;;;5.22;2.00;;;23.10;94.40;;;;;;5020551;28;37332;-58
2022/08/12 07:31:03;;;;;;;7.22;2.00;;;23.20;94.20;;;;;;5023585;28;38783;-58
2022/08/12 07:33:31;;;;;;;4.88;2.10;;;23.20;93.80;;;;;;5021921;28;39413;-58
2022/08/12 07:36:01;;;;;;;8.07;2.78;;;23.30;93.90;;;;;;5021116;28;36555;-63
2022/08/12 07:38:32;;;;;;;6.43;2.28;;;23.40;93.70;;;;;;5024277;28;37691;-58
2022/08/12 07:41:04;;;;;;;5.65;2.00;;;23.40;93.70;;;;;;5023307;28;37745;-58
2022/08/12 07:43:34;;;;;;;6.50;2.20;;;23.50;93.80;;;;;;5021904;28;37360;-58
2022/08/12 07:46:04;;;;;;;7.22;2.33;;;23.60;93.70;;;;;;5017882;28;37131;-58
2022/08/12 07:48:37;;;;;;;4.07;2.17;;;23.70;93.50;;;;;;5021922;28;38828;-62
2022/08/12 07:51:05;;;;;;;7.95;2.38;;;23.70;93.10;;;;;;5024050;28;37086;-58
2022/08/12 07:53:35;;;;;;;5.63;2.45;;;23.70;93.50;;;;;;5023468;28;39029;-58
2022/08/12 07:56:03;;;;;;;7.63;2.35;;;23.70;93.70;;;;;;5023349;28;36615;-63
2022/08/12 07:58:31;;;;;;;4.55;2.15;;;23.70;93.80;;;;;;5022902;28;37301;-63
2022/08/12 08:01:00;;;;;;;9.93;2.45;;;23.80;93.20;;;;;;5021145;28;36772;-63
2022/08/12 08:03:28;;;;;;;6.70;2.33;;;23.90;92.90;;;;;;5023598;28;36362;-63
2022/08/12 08:05:56;;;;;;;9.13;2.35;;;24.00;92.80;;;;;;5021406;28;35396;-58
2022/08/12 08:08:26;;;;;;;6.45;2.20;;;24.00;92.40;;;;;;5027662;28;39292;-63
2022/08/12 08:12:52;;;;;;;5.57;2.22;;;24.00;92.70;;;;;;5025801;28;37554;-58
2022/08/12 08:13:44;;;;;;;10.00;2.42;;;24.10;92.60;;;;;;5017805;28;37849;-58
2022/08/12 08:16:14;;;;;;;5.70;2.00;;;24.20;92.50;;;;;;5019886;28;35427;-58
2022/08/12 08:18:44;;;;;;;6.32;2.08;;;24.20;92.10;;;;;;5022812;28;37696;-58
2022/08/12 08:21:11;;;;;;;4.63;2.20;;;24.30;91.70;;;;;;5041760;28;39196;-63
2022/08/12 08:26:25;;;;;;;6.25;1.95;;;24.40;91.60;;;;;;5041768;28;37015;-59
2022/08/12 08:28:53;;;;;;;10.10;2.13;;;24.50;91.20;;;;;;5040109;28;38439;-58
2022/08/12 08:31:20;;;;;;;8.38;2.30;;;24.60;91.00;;;;;;5040301;28;38135;-63
2022/08/12 08:33:47;;;;;;;4.90;2.22;;;24.70;90.90;;;;;;5038668;28;36784;-59
2022/08/12 08:36:15;;;;;;;12.55;2.45;;;24.70;90.50;;;;;;5038588;28;37777;-58
2022/08/12 08:38:43;;;;;;;5.10;1.77;;;24.80;90.00;;;;;;5041084;28;36283;-58
2022/08/12 08:43:59;;;;;;;5.43;1.95;;;25.10;89.90;;;;;;5040323;28;38287;-63
2022/08/12 08:46:26;;;;;;;9.15;2.00;;;25.20;89.10;;;;;;5039069;28;35247;-63
2022/08/12 08:48:54;;;;;;;5.43;2.03;;;25.40;89.00;;;;;;5040558;28;38377;-63
2022/08/12 08:51:25;;;;;;;7.80;2.33;;;25.50;87.80;;;;;;5040755;28;38176;-63
2022/08/12 08:53:53;;;;;;;6.40;2.45;;;25.50;87.30;;;;;;5041064;28;37668;-59
2022/08/12 08:56:20;;;;;;;9.18;2.65;;;25.60;87.80;;;;;;5042201;28;37532;-58
2022/08/12 08:58:48;;;;;;;7.65;1.92;;;25.70;86.60;;;;;;5040556;28;37309;-63
2022/08/12 09:01:20;;;;;;;3.85;1.67;;;25.80;82.90;;;;;;5041921;28;37628;-59
2022/08/12 09:03:47;;;;;;;8.73;2.30;;;26.00;82.90;;;;;;5039270;28;37368;-58
2022/08/12 09:06:14;;;;;;;6.47;1.80;;;26.10;79.60;;;;;;5040878;28;37811;-58
2022/08/12 09:08:42;;;;;;;6.40;2.13;;;26.30;75.40;;;;;;5039163;28;37249;-63
2022/08/12 09:13:55;;;;;;;4.78;2.00;;;26.70;73.70;;;;;;5037794;28;37312;-58
2022/08/12 09:16:23;;;;;;;5.50;1.60;;;26.90;72.30;;;;;;5041467;28;37197;-58
2022/08/12 09:18:51;;;;;;;3.97;1.50;;;26.90;70.30;;;;;;5040876;28;37868;-63
2022/08/12 09:21:18;;;;;;;10.00;1.95;;;27.00;69.40;;;;;;5040160;28;37814;-63
2022/08/12 09:23:48;;;;;;;5.10;1.67;;;27.10;70.40;;;;;;5039773;28;37972;-63
2022/08/12 09:26:17;;;;;;;8.45;1.73;;;27.20;69.70;;;;;;5040842;28;36445;-58
2022/08/12 09:28:46;;;;;;;65.35;6.20;;;27.20;67.50;;;;;;5039389;28;37719;-63
2022/08/12 09:31:13;;;;;;;4.68;1.92;;;27.20;66.30;;;;;;5040633;28;37287;-63
2022/08/12 09:33:42;;;;;;;3.55;1.55;;;27.30;65.30;;;;;;5040097;28;38973;-63
2022/08/12 09:36:09;;;;;;;7.63;1.70;;;27.40;62.10;;;;;;5038691;28;36347;-59
2022/08/12 09:38:38;;;;;;;6.10;1.80;;;27.40;61.30;;;;;;5038996;28;36406;-58
2022/08/12 09:41:06;;;;;;;6.75;1.98;;;27.50;60.70;;;;;;5039916;28;37839;-59
2022/08/12 09:46:18;;;;;;;5.03;1.65;;;27.60;60.20;;;;;;5042908;28;37465;-63
2022/08/12 09:48:47;;;;;;;5.35;1.70;;;27.70;59.70;;;;;;5043283;28;36339;-63
2022/08/12 09:51:15;;;;;;;5.22;2.38;;;27.90;60.30;;;;;;5040988;28;38426;-58
2022/08/12 09:53:42;;;;;;;5.75;1.95;;;27.90;58.70;;;;;;5042944;28;36465;-58
2022/08/12 09:56:11;;;;;;;4.47;1.90;;;27.90;57.00;;;;;;5041427;28;41577;-63
2022/08/12 09:58:40;;;;;;;5.70;2.08;;;27.90;56.70;;;;;;5042235;28;38075;-63
2022/08/12 10:01:07;;;;;;;4.15;1.95;;;28.00;56.50;;;;;;5041930;28;36614;-58
2022/08/12 10:03:42;;;;;;;4.07;1.70;;;28.10;55.90;;;;;;5043652;28;38435;-63
2022/08/12 10:06:11;;;;;;;5.43;1.70;;;28.20;55.60;;;;;;5044053;28;36611;-63
2022/08/12 10:08:39;;;;;;;4.00;1.90;;;28.30;54.20;;;;;;5040030;28;40892;-63
2022/08/12 10:13:58;;;;;;;5.72;1.92;;;28.50;54.20;;;;;;5043927;28;39274;-63
2022/08/12 10:16:30;;;;;;;4.47;1.70;;;28.60;54.10;;;;;;5044073;28;35827;-63
2022/08/12 10:19:01;;;;;;;5.53;1.90;;;28.60;53.40;;;;;;5043883;28;37365;-63
2022/08/12 10:21:33;;;;;;;4.20;1.75;;;28.60;52.90;;;;;;5042928;28;34718;-63
2022/08/12 10:24:03;;;;;;;4.60;2.17;;;28.70;52.10;;;;;;5044058;28;36114;-63
2022/08/12 10:32:03;;;;;;;5.75;1.90;;;28.80;53.50;;;;;;5044877;28;37807;-63
2022/08/12 10:34:30;;;;;;;7.43;1.98;;;28.80;53.20;;;;;;5042792;28;37183;-63
2022/08/12 10:37:01;;;;;;;7.63;2.72;;;28.90;52.60;;;;;;5042633;28;37124;-63
2022/08/12 10:39:32;;;;;;;4.65;1.67;;;28.90;52.00;;;;;;5042277;28;38928;-61
2022/08/12 10:44:45;;;;;;;6.03;1.77;;;29.00;50.70;;;;;;5042487;28;38720;-56
2022/08/12 10:47:15;;;;;;;9.30;1.80;;;29.00;50.50;;;;;;5043476;28;37977;-61
2022/08/12 10:49:43;;;;;;;4.90;1.77;;;29.00;50.30;;;;;;5043082;28;36257;-61
2022/08/12 10:52:12;;;;;;;5.75;2.17;;;29.00;50.70;;;;;;5042151;28;39643;-61
2022/08/12 10:54:41;;;;;;;5.10;1.90;;;29.00;49.80;;;;;;5042170;28;37516;-56
2022/08/12 10:57:10;;;;;;;2.40;1.40;;;29.10;49.00;;;;;;5044254;28;35262;-56
2022/08/12 10:59:37;;;;;;;4.82;2.00;;;29.10;48.20;;;;;;5039257;28;36545;-56
2022/08/12 11:02:06;;;;;;;3.53;1.50;;;29.10;47.70;;;;;;5039727;28;40594;-56
2022/08/12 11:04:37;;;;;;;6.57;1.92;;;29.10;47.50;;;;;;5042543;28;36318;-56
2022/08/12 11:07:04;;;;;;;4.90;1.77;;;29.10;48.30;;;;;;5043679;28;39551;-60
2022/08/12 11:09:36;;;;;;;4.82;2.10;;;29.20;48.30;;;;;;5042114;28;38766;-61
2022/08/12 11:12:06;;;;;;;4.38;1.58;;;29.30;47.50;;;;;;5037136;28;37507;-61
2022/08/12 11:14:34;;;;;;;10.15;1.70;;;29.20;46.70;;;;;;5041613;28;37035;-60
2022/08/12 11:17:06;;;;;;;5.40;1.70;;;29.10;45.90;;;;;;5042816;28;38908;-61
2022/08/12 11:19:35;;;;;;;5.63;1.70;;;29.10;46.10;;;;;;5040747;28;40536;-61
2022/08/12 11:22:03;;;;;;;10.35;2.08;;;29.20;47.00;;;;;;5038344;28;35730;-56
2022/08/12 11:24:33;;;;;;;3.10;1.60;;;29.20;46.40;;;;;;5033373;28;36342;-58
2022/08/12 11:27:02;;;;;;;6.25;1.95;;;29.20;46.70;;;;;;5034687;28;37333;-58
2022/08/12 11:29:30;;;;;;;3.63;1.70;;;29.30;46.90;;;;;;5035539;28;37574;-57
2022/08/12 11:31:58;;;;;;;13.98;2.55;;;29.30;46.10;;;;;;5034596;28;39721;-57
2022/08/12 11:34:25;;;;;;;2.30;1.58;;;29.30;45.80;;;;;;5034446;28;36327;-57
2022/08/12 11:36:54;;;;;;;5.40;1.55;;;29.30;45.90;;;;;;5035546;28;37516;-57
2022/08/12 11:39:22;;;;;;;3.47;1.52;;;29.30;46.10;;;;;;5034766;28;38042;-57
2022/08/12 11:41:51;;;;;;;5.90;1.63;;;29.40;45.80;;;;;;5034015;28;38781;-57
2022/08/12 11:44:19;;;;;;;9.05;2.15;;;29.40;44.90;;;;;;5034833;28;38515;-57
2022/08/12 11:46:46;;;;;;;6.10;1.63;;;29.40;46.30;;;;;;5035130;28;38239;-57
2022/08/12 11:49:14;;;;;;;3.42;1.70;;;29.40;46.40;;;;;;5034062;28;38143;-57
2022/08/12 11:51:41;;;;;;;7.28;1.90;;;29.40;44.90;;;;;;5038360;28;37843;-57
2022/08/12 11:54:08;;;;;;;3.60;1.52;;;29.30;44.50;;;;;;5038927;28;37053;-58
2022/08/12 11:56:36;;;;;;;4.38;1.58;;;29.30;44.50;;;;;;5039532;28;35460;-57
2022/08/12 11:59:05;;;;;;;4.40;1.67;;;29.30;44.80;;;;;;5035775;28;38913;-57
2022/08/12 12:01:32;;;;;;;5.10;1.60;;;29.30;45.90;;;;;;5036054;28;36518;-57
2022/08/12 12:03:59;;;;;;;3.78;1.45;;;29.30;46.00;;;;;;5038134;28;37701;-57
2022/08/12 12:06:27;;;;;;;3.95;1.50;;;29.30;46.70;;;;;;5036888;28;36316;-62
2022/08/12 12:08:54;;;;;;;3.85;1.83;;;29.30;46.50;;;;;;5037060;28;37792;-57
2022/08/12 12:11:22;;;;;;;6.38;1.90;;;29.40;47.00;;;;;;5037416;28;38636;-57
2022/08/12 12:13:50;;;;;;;4.80;1.60;;;29.40;47.20;;;;;;5034745;28;38319;-57
2022/08/12 12:16:19;;;;;;;4.85;1.60;;;29.40;46.90;;;;;;5037034;28;35542;-58
2022/08/12 12:18:46;;;;;;;4.70;1.95;;;29.40;45.90;;;;;;5036223;28;37714;-62
2022/08/12 12:21:14;;;;;;;4.68;1.60;;;29.30;44.60;;;;;;5036881;28;38899;-57
2022/08/12 12:23:41;;;;;;;1.85;1.23;;;29.30;45.20;;;;;;5036980;28;37256;-57
2022/08/12 12:26:09;;;;;;;5.93;1.77;;;29.20;44.70;;;;;;5037670;28;36451;-57
2022/08/12 12:28:37;;;;;;;3.28;1.55;;;29.20;44.70;;;;;;5036695;28;38110;-57
2022/08/12 12:31:06;;;;;;;7.00;1.88;;;29.20;45.60;;;;;;5034632;28;36680;-58
2022/08/12 12:33:35;;;;;;;3.90;1.88;;;29.10;45.70;;;;;;5037388;28;37313;-57
2022/08/12 12:36:03;;;;;;;5.45;1.95;;;29.10;45.90;;;;;;5037085;28;37309;-57
2022/08/12 12:38:30;;;;;;;4.85;1.60;;;29.10;44.70;;;;;;5037023;28;38392;-62
2022/08/12 12:40:57;;;;;;;5.30;1.80;;;29.10;45.10;;;;;;5035127;28;37575;-62
2022/08/12 12:43:24;;;;;;;5.95;1.90;;;29.00;45.20;;;;;;5036124;28;36088;-57
2022/08/12 12:45:52;;;;;;;4.88;1.90;;;28.90;45.20;;;;;;5035812;28;36663;-57
2022/08/12 12:48:21;;;;;;;4.03;1.60;;;28.90;46.00;;;;;;5036314;28;37390;-58
2022/08/12 12:51:14;;;;;;;4.38;1.70;;;28.90;46.50;;;;;;5037682;28;39084;-58
2022/08/12 12:53:41;;;;;;;7.50;1.83;;;28.90;47.20;;;;;;5039116;28;38169;-57
2022/08/12 12:56:14;;;;;;;5.88;1.80;;;28.90;47.80;;;;;;5039030;28;35451;-57
2022/08/12 12:58:42;;;;;;;3.40;1.75;;;29.00;47.40;;;;;;5036581;28;37447;-57
2022/08/12 13:01:10;;;;;;;3.38;1.60;;;28.90;47.70;;;;;;5036896;28;38824;-58
2022/08/12 13:03:37;;;;;;;3.35;1.80;;;28.90;46.80;;;;;;5038266;28;36631;-61
2022/08/12 13:06:07;;;;;;;5.03;1.52;;;28.90;47.80;;;;;;5037825;28;36624;-62
2022/08/12 13:08:34;;;;;;;4.47;1.60;;;28.90;47.10;;;;;;5037946;28;37616;-62
2022/08/12 13:11:04;;;;;;;9.82;2.17;;;28.80;47.20;;;;;;5037760;28;37626;-62
2022/08/12 13:13:33;;;;;;;4.07;1.33;;;28.80;46.70;;;;;;5038093;28;37193;-62
2022/08/12 13:16:01;;;;;;;4.20;1.65;;;28.80;47.00;;;;;;5039842;28;37489;-62
2022/08/12 13:18:30;;;;;;;4.57;1.85;;;28.80;47.50;;;;;;5036092;28;37524;-62
2022/08/12 13:20:58;;;;;;;4.72;1.48;;;28.80;46.90;;;;;;5039227;28;38345;-62
2022/08/12 13:23:26;;;;;;;6.60;1.73;;;28.80;47.40;;;;;;5041108;28;37168;-62
2022/08/12 13:25:56;;;;;;;3.53;1.55;;;28.80;47.70;;;;;;5039643;28;36550;-62
2022/08/12 13:28:27;;;;;;;7.20;1.83;;;28.70;46.00;;;;;;5039534;28;37684;-62
2022/08/12 13:30:56;;;;;;;6.05;1.65;;;28.80;45.80;;;;;;5039500;28;38365;-62
2022/08/12 13:33:25;;;;;;;3.25;1.50;;;28.70;45.40;;;;;;5039351;28;37777;-62
2022/08/12 13:35:54;;;;;;;4.00;1.50;;;28.60;45.50;;;;;;5039004;28;38175;-62
2022/08/12 13:38:32;;;;;;;4.22;1.60;;;28.60;45.50;;;;;;5037466;28;38805;-62
2022/08/12 13:41:01;;;;;;;6.05;1.67;;;28.60;46.80;;;;;;5038371;28;37721;-58
2022/08/12 13:43:29;;;;;;;3.60;1.50;;;28.60;47.30;;;;;;5039250;28;38345;-57
2022/08/12 13:45:56;;;;;;;3.03;1.50;;;28.50;47.70;;;;;;5039724;28;37413;-57
2022/08/12 13:48:23;;;;;;;3.88;1.60;;;28.60;48.10;;;;;;5036070;28;37598;-57
2022/08/12 13:50:51;;;;;;;7.20;1.70;;;28.60;48.20;;;;;;5038462;28;36568;-57
2022/08/12 13:53:19;;;;;;;7.13;1.60;;;28.50;48.40;;;;;;5038198;28;37344;-57
2022/08/12 13:55:48;;;;;;;2.85;1.23;;;28.60;48.70;;;;;;5038844;28;36709;-58
2022/08/12 13:58:19;;;;;;;5.03;1.35;;;28.60;48.60;;;;;;5036901;28;37276;-57
2022/08/12 14:00:49;;;;;;;6.13;1.77;;;28.50;47.30;;;;;;5039471;28;37708;-57
2022/08/12 14:03:17;;;;;;;4.28;1.50;;;28.50;47.60;;;;;;5037932;28;37289;-57
2022/08/12 14:05:45;;;;;;;3.08;1.40;;;28.40;48.20;;;;;;5036163;28;35833;-57
2022/08/12 14:08:14;;;;;;;4.32;1.58;;;28.40;47.60;;;;;;5038151;28;37874;-57
2022/08/12 14:10:45;;;;;;;3.05;1.45;;;28.40;47.70;;;;;;5035794;28;38086;-57
2022/08/12 14:13:15;;;;;;;3.90;1.50;;;28.30;47.30;;;;;;5038145;28;37727;-57
2022/08/12 14:15:47;;;;;;;7.15;1.92;;;28.30;48.30;;;;;;5040668;28;36606;-58
2022/08/12 14:18:16;;;;;;;6.15;1.98;;;28.20;48.90;;;;;;5038333;28;38558;-57
2022/08/12 14:20:45;;;;;;;3.40;1.52;;;28.20;49.30;;;;;;5014256;28;37777;-58
2022/08/12 14:23:13;;;;;;;3.40;1.30;;;28.20;50.20;;;;;;5020708;28;37581;-58
2022/08/12 14:25:42;;;;;;;6.25;1.58;;;28.20;51.00;;;;;;5013919;28;37469;-58
2022/08/12 14:28:11;;;;;;;4.97;1.63;;;28.10;49.40;;;;;;5016330;28;37923;-58
2022/08/12 14:30:45;;;;;;;5.00;1.60;;;28.10;48.90;;;;;;5003780;28;38057;-58
2022/08/12 14:33:14;;;;;;;4.95;1.70;;;28.10;49.30;;;;;;5002221;28;36069;-58
2022/08/12 14:35:42;;;;;;;6.45;1.92;;;28.10;48.70;;;;;;5000977;28;37563;-58
2022/08/12 14:38:15;;;;;;;4.43;1.80;;;28.10;50.80;;;;;;5004274;28;37570;-58
2022/08/12 14:40:43;;;;;;;4.22;1.60;;;28.10;53.20;;;;;;5007313;28;38005;-58